Time;durP1;ratioP1;P1;durP2;ratioP2;P2;SDS_P1;SDS_P2;PMS_P1;PMS_P2;Temp;Humidity;BMP_temperature;BMP_pressure;BME280_temperature;BME280_humidity;BME280_pressure;Samples;Min_cycle;Max_cycle;Signal;HPM_P1;HPM_P2
2023/01/24 00:00:13;;;;;;;;;;;;;;;5.31;70.04;102317.88;5097454;27;5242;-77
2023/01/24 00:02:40;;;;;;;;;;;;;;;5.39;69.77;102319.84;5097205;27;5321;-77
2023/01/24 00:05:06;;;;;;;;;;;;;;;5.49;69.44;102325.16;5113414;27;5930;-77
2023/01/24 00:07:33;;;;;;;;;;;;;;;5.37;69.73;102321.81;5095497;27;5680;-77
2023/01/24 00:10:00;;;;;;;;;;;;;;;5.33;69.83;102328.44;5114790;27;5489;-77
2023/01/24 00:12:27;;;;;;;;;;;;;;;5.37;69.67;102319.13;5096252;27;5713;-77
2023/01/24 00:14:53;;;;;;;;;;;;;;;5.37;69.82;102313.78;5111160;27;5344;-77
2023/01/24 00:17:21;;;;;;;;;;;;;;;5.45;69.49;102308.59;5096308;27;5245;-77
2023/01/24 00:19:48;;;;;;;;;;;;;;;5.41;69.55;102313.38;5111980;27;6009;-77
2023/01/24 00:22:14;;;;;;;;;;;;;;;5.41;69.89;102315.19;5111674;27;5919;-77
2023/01/24 00:24:41;;;;;;;;;;;;;;;5.34;69.95;102328.28;5113264;27;5630;-77
2023/01/24 00:27:08;;;;;;;;;;;;;;;5.29;70.18;102325.19;5112568;27;5371;-77
2023/01/24 00:29:36;;;;;;;;;;;;;;;5.42;70.01;102335.59;5093843;27;5681;-77
2023/01/24 00:32:02;;;;;;;;;;;;;;;5.45;69.93;102332.63;5111726;27;5238;-77
2023/01/24 00:34:29;;;;;;;;;;;;;;;5.37;70.04;102314.63;5111003;27;5836;-77
2023/01/24 00:36:55;;;;;;;;;;;;;;;5.36;70.08;102309.44;5112430;27;5317;-77
2023/01/24 00:39:22;;;;;;;;;;;;;;;5.40;69.85;102303.66;5114075;27;5300;-77
2023/01/24 00:41:50;;;;;;;;;;;;;;;5.42;69.76;102296.34;5095270;27;5407;-77
2023/01/24 00:44:16;;;;;;;;;;;;;;;5.38;69.96;102294.09;5112957;27;5540;-77
2023/01/24 00:46:43;;;;;;;;;;;;;;;5.48;69.58;102286.91;5111942;27;5251;-77
2023/01/24 00:49:11;;;;;;;;;;;;;;;5.40;69.86;102279.59;5111479;27;5403;-77
2023/01/24 00:51:37;;;;;;;;;;;;;;;5.37;70.16;102271.03;5110996;27;5382;-77
2023/01/24 00:54:04;;;;;;;;;;;;;;;5.39;69.93;102275.25;5094231;27;5327;-77
2023/01/24 00:56:31;;;;;;;;;;;;;;;5.43;69.75;102286.50;5109412;27;5743;-77
2023/01/24 00:58:58;;;;;;;;;;;;;;;5.44;69.63;102285.50;5109578;27;5329;-77
2023/01/24 01:01:24;;;;;;;;;;;;;;;5.37;70.05;102281.72;5111053;27;5290;-77
2023/01/24 01:03:51;;;;;;;;;;;;;;;5.33;70.20;102281.19;5099920;27;5845;-77
2023/01/24 01:06:17;;;;;;;;;;;;;;;5.41;70.04;102286.66;5111495;27;5633;-77
2023/01/24 01:08:44;;;;;;;;;;;;;;;5.35;69.98;102295.22;5113425;27;5334;-77
2023/01/24 01:11:10;;;;;;;;;;;;;;;5.31;69.93;102291.16;5113366;27;5391;-77
2023/01/24 01:13:39;;;;;;;;;;;;;;;5.38;69.94;102275.38;5109970;27;5779;-77
2023/01/24 01:16:07;;;;;;;;;;;;;;;5.29;70.25;102262.88;5112054;27;6085;-77
2023/01/24 01:18:34;;;;;;;;;;;;;;;5.37;69.91;102255.84;5109841;27;5337;-77
2023/01/24 01:21:01;;;;;;;;;;;;;;;5.34;69.98;102258.81;5096094;27;5292;-77
2023/01/24 01:23:28;;;;;;;;;;;;;;;5.35;69.98;102263.16;5111813;27;5694;-77
2023/01/24 01:25:54;;;;;;;;;;;;;;;5.35;70.08;102256.97;5112622;27;6064;-77
2023/01/24 01:28:21;;;;;;;;;;;;;;;5.45;69.69;102258.63;5113789;27;5843;-77
2023/01/24 01:30:47;;;;;;;;;;;;;;;5.35;69.95;102257.81;5111008;27;5270;-77
2023/01/24 01:33:14;;;;;;;;;;;;;;;5.26;70.25;102260.50;5111806;27;5283;-77
2023/01/24 01:35:40;;;;;;;;;;;;;;;5.36;70.09;102261.34;5111628;27;5695;-78
2023/01/24 01:38:07;;;;;;;;;;;;;;;5.33;70.07;102256.28;5111510;27;5418;-78
2023/01/24 01:40:33;;;;;;;;;;;;;;;5.33;70.14;102243.78;5111267;27;5563;-78
2023/01/24 01:43:00;;;;;;;;;;;;;;;5.26;70.26;102245.31;5113984;27;5761;-78
2023/01/24 01:45:27;;;;;;;;;;;;;;;5.33;70.25;102243.78;5109785;27;6015;-78
2023/01/24 01:47:55;;;;;;;;;;;;;;;5.30;70.40;102241.38;5111800;27;5617;-78
2023/01/24 01:50:22;;;;;;;;;;;;;;;5.23;70.65;102250.94;5108824;27;5865;-77
2023/01/24 01:52:49;;;;;;;;;;;;;;;5.26;70.35;102247.97;5098724;27;5518;-77
2023/01/24 01:55:15;;;;;;;;;;;;;;;5.32;70.22;102252.75;5112211;27;5792;-78
2023/01/24 01:57:42;;;;;;;;;;;;;;;5.33;70.26;102250.94;5112366;27;5717;-78
2023/01/24 02:00:08;;;;;;;;;;;;;;;5.38;70.11;102262.03;5093563;27;5782;-78
2023/01/24 02:02:35;;;;;;;;;;;;;;;5.36;69.95;102264.84;5112813;27;5630;-78
2023/01/24 02:05:01;;;;;;;;;;;;;;;5.39;70.03;102264.56;5109680;27;5793;-78
2023/01/24 02:07:29;;;;;;;;;;;;;;;5.34;70.26;102272.16;5110044;27;5680;-78
2023/01/24 02:09:56;;;;;;;;;;;;;;;5.28;70.35;102280.75;5099356;27;5763;-78
2023/01/24 02:12:23;;;;;;;;;;;;;;;5.26;70.65;102280.03;5106281;27;6119;-78
2023/01/24 02:17:35;;;;;;;;;;;;;;;5.34;70.27;102274.00;5110802;27;5679;-78
2023/01/24 02:20:02;;;;;;;;;;;;;;;5.43;70.15;102271.28;5091325;27;5878;-78
2023/01/24 02:22:28;;;;;;;;;;;;;;;5.30;70.42;102269.94;5112066;27;5787;-78
2023/01/24 02:24:56;;;;;;;;;;;;;;;5.31;70.29;102272.44;5112001;27;5349;-78
2023/01/24 02:27:23;;;;;;;;;;;;;;;5.28;70.43;102267.41;5097375;27;5852;-78
2023/01/24 02:29:49;;;;;;;;;;;;;;;5.41;70.03;102272.41;5110275;27;5349;-78
2023/01/24 02:32:17;;;;;;;;;;;;;;;5.42;70.00;102269.63;5106873;27;5333;-78
2023/01/24 02:34:44;;;;;;;;;;;;;;;5.35;70.13;102268.50;5088329;27;5719;-77
2023/01/24 02:37:12;;;;;;;;;;;;;;;5.33;70.44;102264.31;5109709;27;5722;-78
2023/01/24 02:39:39;;;;;;;;;;;;;;;5.33;70.31;102264.31;5094358;27;5730;-78
2023/01/24 02:42:05;;;;;;;;;;;;;;;5.28;70.40;102266.56;5093039;27;5234;-78
2023/01/24 02:44:33;;;;;;;;;;;;;;;5.30;70.38;102273.44;5108993;27;5515;-78
2023/01/24 02:47:00;;;;;;;;;;;;;;;5.29;70.43;102285.09;5095726;27;5266;-78
2023/01/24 02:49:26;;;;;;;;;;;;;;;5.32;70.32;102289.31;5109583;27;5891;-78
2023/01/24 02:54:38;;;;;;;;;;;;;;;5.31;70.29;102299.16;5092051;27;5784;-78
2023/01/24 02:59:49;;;;;;;;;;;;;;;5.37;70.26;102292.41;5091206;28;5757;-78
2023/01/24 03:02:15;;;;;;;;;;;;;;;5.29;70.51;102285.09;5092537;28;5361;-78
2023/01/24 03:04:42;;;;;;;;;;;;;;;5.23;70.76;102283.00;5108155;27;5537;-78
2023/01/24 03:07:09;;;;;;;;;;;;;;;5.24;70.77;102280.19;5111300;27;5801;-78
2023/01/24 03:09:38;;;;;;;;;;;;;;;5.36;70.32;102296.91;5110991;27;5928;-78
2023/01/24 03:36:45;;;;;;;;;;;;;;;5.28;70.59;102282.59;5095929;28;5664;-78
2023/01/24 03:41:56;;;;;;;;;;;;;;;5.22;70.61;102271.47;5112899;28;5872;-77
2023/01/24 03:44:23;;;;;;;;;;;;;;;5.22;70.84;102273.31;5084765;28;5354;-78
2023/01/24 03:46:50;;;;;;;;;;;;;;;5.22;70.92;102267.97;5086962;28;5394;-78
2023/01/24 03:49:18;;;;;;;;;;;;;;;5.21;70.80;102268.97;5094634;28;5657;-78
2023/01/24 03:54:30;;;;;;;;;;;;;;;5.16;71.04;102261.38;5079680;28;5380;-78
2023/01/24 03:56:57;;;;;;;;;;;;;;;5.14;71.01;102268.66;5096800;28;5728;-78
2023/01/24 03:59:24;;;;;;;;;;;;;;;5.10;71.23;102277.13;5077681;28;5397;-78
2023/01/24 04:01:51;;;;;;;;;;;;;;;5.15;70.88;102272.22;5100418;28;5421;-78
2023/01/24 04:04:19;;;;;;;;;;;;;;;5.16;70.89;102272.06;5094418;28;5760;-78
2023/01/24 04:06:46;;;;;;;;;;;;;;;5.19;71.02;102276.28;5080588;28;5383;-78
2023/01/24 04:09:14;;;;;;;;;;;;;;;5.09;71.28;102275.41;5096172;27;5233;-78
2023/01/24 04:11:41;;;;;;;;;;;;;;;5.16;71.06;102280.06;5095528;27;5846;-78
2023/01/24 04:14:08;;;;;;;;;;;;;;;5.12;71.25;102283.19;5097373;27;5433;-78
2023/01/24 04:16:34;;;;;;;;;;;;;;;5.09;71.18;102291.44;5078196;27;5303;-78
2023/01/24 04:19:02;;;;;;;;;;;;;;;5.09;71.27;102294.97;5095070;27;5316;-78
2023/01/24 04:21:29;;;;;;;;;;;;;;;5.20;70.91;102291.31;5081749;27;5670;-78
2023/01/24 04:23:56;;;;;;;;;;;;;;;5.12;71.09;102283.19;5080668;27;5283;-78
2023/01/24 04:26:25;;;;;;;;;;;;;;;5.19;71.12;102273.59;5095947;27;5303;-78
2023/01/24 04:28:52;;;;;;;;;;;;;;;5.06;71.43;102271.22;5081225;27;5715;-78
2023/01/24 04:31:19;;;;;;;;;;;;;;;5.14;71.18;102282.03;5102307;27;6076;-78
2023/01/24 04:33:47;;;;;;;;;;;;;;;5.09;71.25;102267.41;5076874;27;5140;-78
2023/01/24 04:36:13;;;;;;;;;;;;;;;5.15;70.95;102264.19;5095612;27;5289;-78
2023/01/24 04:38:40;;;;;;;;;;;;;;;5.10;71.12;102240.56;5110441;27;5322;-78
2023/01/24 04:41:12;;;;;;;;;;;;;;;5.11;71.14;102236.06;5113477;27;5935;-78
2023/01/24 04:43:38;;;;;;;;;;;;;;;5.12;71.12;102235.94;5111728;27;5362;-78
2023/01/24 04:46:05;;;;;;;;;;;;;;;5.10;71.07;102223.72;5095454;27;5820;-78
2023/01/24 04:48:31;;;;;;;;;;;;;;;5.19;70.75;102231.69;5093726;27;5316;-78
2023/01/24 04:51:00;;;;;;;;;;;;;;;5.21;70.85;102235.06;5096986;27;5327;-78
2023/01/24 04:53:27;;;;;;;;;;;;;;;5.19;70.94;102221.00;5093328;27;5734;-78
2023/01/24 04:55:54;;;;;;;;;;;;;;;5.15;71.03;102216.13;5095298;27;5833;-78
2023/01/24 04:58:21;;;;;;;;;;;;;;;5.13;71.04;102205.56;5099154;27;5855;-78
2023/01/24 05:00:48;;;;;;;;;;;;;;;5.10;71.13;102215.69;5097501;27;5353;-78
2023/01/24 05:03:15;;;;;;;;;;;;;;;5.16;70.80;102218.63;5076042;27;5270;-78
2023/01/24 05:05:41;;;;;;;;;;;;;;;5.14;71.22;102212.56;5095348;27;5408;-78
2023/01/24 05:08:09;;;;;;;;;;;;;;;5.10;71.22;102216.53;5096561;27;5328;-78
2023/01/24 05:10:36;;;;;;;;;;;;;;;5.13;71.03;102212.72;5088715;27;5754;-78
2023/01/24 05:13:04;;;;;;;;;;;;;;;5.24;70.54;102218.75;5099758;27;5368;-78
2023/01/24 05:15:32;;;;;;;;;;;;;;;5.22;70.70;102218.03;5081277;27;5333;-78
2023/01/24 05:17:58;;;;;;;;;;;;;;;5.16;70.99;102212.44;5093441;27;5598;-78
2023/01/24 05:20:26;;;;;;;;;;;;;;;5.07;71.30;102206.13;5073404;27;5478;-78
2023/01/24 05:22:53;;;;;;;;;;;;;;;5.12;71.13;102211.91;5096166;27;5904;-78
2023/01/24 05:25:20;;;;;;;;;;;;;;;5.24;70.85;102218.75;5097233;27;5610;-78
2023/01/24 05:27:47;;;;;;;;;;;;;;;5.18;70.97;102221.16;5094777;27;5636;-78
2023/01/24 05:30:14;;;;;;;;;;;;;;;5.12;71.02;102217.25;5075596;27;5359;-78
2023/01/24 05:32:41;;;;;;;;;;;;;;;5.13;71.23;102216.25;5094017;27;5566;-78
2023/01/24 05:35:09;;;;;;;;;;;;;;;5.14;71.18;102223.25;5083188;27;5331;-78
2023/01/24 05:37:36;;;;;;;;;;;;;;;5.17;70.89;102216.78;5112553;27;5855;-78
2023/01/24 05:40:04;;;;;;;;;;;;;;;5.17;70.88;102208.78;5088126;27;5763;-78
2023/01/24 05:42:32;;;;;;;;;;;;;;;5.18;70.77;102208.66;5093091;27;5824;-78
2023/01/24 05:44:59;;;;;;;;;;;;;;;5.15;71.08;102205.44;5097132;27;5313;-78
2023/01/24 05:47:25;;;;;;;;;;;;;;;5.09;71.13;102214.00;5090377;27;5749;-78
2023/01/24 05:49:52;;;;;;;;;;;;;;;5.13;70.88;102220.75;5076615;27;5481;-78
2023/01/24 05:52:21;;;;;;;;;;;;;;;5.07;71.40;102207.97;5074841;27;5592;-78
2023/01/24 05:54:47;;;;;;;;;;;;;;;5.11;71.27;102198.66;5098825;27;5355;-78
2023/01/24 05:57:14;;;;;;;;;;;;;;;5.10;71.17;102199.66;5074804;27;5647;-78
2023/01/24 05:59:41;;;;;;;;;;;;;;;5.20;70.96;102216.50;5092930;27;5769;-78
2023/01/24 06:02:09;;;;;;;;;;;;;;;5.27;70.76;102219.47;5074397;27;5507;-78
2023/01/24 06:04:36;;;;;;;;;;;;;;;5.16;70.90;102226.63;5072020;27;5308;-78
2023/01/24 06:07:03;;;;;;;;;;;;;;;5.12;71.22;102224.41;5078577;27;5730;-78
2023/01/24 06:09:31;;;;;;;;;;;;;;;5.14;71.00;102235.78;5092908;27;5759;-78
2023/01/24 06:11:58;;;;;;;;;;;;;;;5.16;70.84;102245.34;5089596;27;5705;-78
2023/01/24 06:14:25;;;;;;;;;;;;;;;5.09;71.27;102246.91;5095599;27;5635;-78
2023/01/24 06:16:52;;;;;;;;;;;;;;;5.07;71.24;102238.19;5093333;27;5766;-78
2023/01/24 06:19:19;;;;;;;;;;;;;;;5.08;71.24;102239.03;5091100;27;5520;-78
2023/01/24 06:21:46;;;;;;;;;;;;;;;5.13;71.55;102244.78;5095104;27;5297;-78
2023/01/24 06:24:15;;;;;;;;;;;;;;;5.13;71.08;102248.28;5092966;27;5675;-78
2023/01/24 06:26:42;;;;;;;;;;;;;;;5.02;71.43;102256.47;5091204;27;5921;-78
2023/01/24 06:29:11;;;;;;;;;;;;;;;5.09;71.30;102259.41;5093067;27;5391;-78
2023/01/24 06:31:38;;;;;;;;;;;;;;;5.09;71.16;102268.28;5094313;27;5210;-78
2023/01/24 06:34:04;;;;;;;;;;;;;;;5.13;71.08;102255.47;5091930;27;5808;-78
2023/01/24 06:36:34;;;;;;;;;;;;;;;5.04;71.39;102242.97;5092987;27;5828;-78
2023/01/24 06:39:01;;;;;;;;;;;;;;;5.21;70.79;102237.75;5090824;27;5604;-79
2023/01/24 06:41:27;;;;;;;;;;;;;;;5.22;70.50;102239.41;5108866;27;5265;-78
2023/01/24 06:43:54;;;;;;;;;;;;;;;5.11;71.12;102231.56;5095031;27;5331;-78
2023/01/24 06:46:21;;;;;;;;;;;;;;;5.05;71.27;102234.81;5109329;27;5536;-78
2023/01/24 06:48:48;;;;;;;;;;;;;;;5.07;71.36;102246.19;5110063;27;5878;-78
2023/01/24 06:51:15;;;;;;;;;;;;;;;5.04;71.49;102242.97;5096406;28;5787;-78
2023/01/24 06:53:42;;;;;;;;;;;;;;;5.09;71.19;102249.56;5096117;28;5397;-78
2023/01/24 06:56:09;;;;;;;;;;;;;;;5.10;71.32;102259.25;5093874;27;5948;-78
2023/01/24 06:58:36;;;;;;;;;;;;;;;5.17;70.84;102263.03;5112841;27;5650;-78
2023/01/24 07:01:02;;;;;;;;;;;;;;;5.17;70.88;102252.34;5107379;27;5743;-78
2023/01/24 07:03:29;;;;;;;;;;;;;;;5.09;71.23;102251.38;5109753;27;5671;-78
2023/01/24 07:05:56;;;;;;;;;;;;;;;5.17;70.91;102238.16;5088761;28;6016;-78
2023/01/24 07:08:22;;;;;;;;;;;;;;;5.15;71.17;102232.97;5096811;28;5734;-78
2023/01/24 07:10:49;;;;;;;;;;;;;;;5.09;71.07;102233.56;5109882;27;5996;-78
2023/01/24 07:13:15;;;;;;;;;;;;;;;5.21;70.95;102239.56;5110322;27;5504;-78
2023/01/24 07:15:42;;;;;;;;;;;;;;;5.23;70.70;102237.59;5093587;28;5416;-78
2023/01/24 07:18:10;;;;;;;;;;;;;;;5.19;70.82;102234.38;5110646;27;5377;-78
2023/01/24 07:20:37;;;;;;;;;;;;;;;5.16;70.98;102233.81;5104838;28;6016;-78
2023/01/24 07:23:03;;;;;;;;;;;;;;;5.15;70.98;102227.63;5095629;28;5550;-78
2023/01/24 07:25:31;;;;;;;;;;;;;;;5.18;70.96;102224.69;5092909;28;5668;-78
2023/01/24 07:27:57;;;;;;;;;;;;;;;5.19;70.88;102236.19;5106011;28;5619;-78
2023/01/24 07:30:27;;;;;;;;;;;;;;;5.15;71.04;102232.13;5091029;28;5284;-78
2023/01/24 07:32:55;;;;;;;;;;;;;;;5.14;71.10;102235.78;5075751;28;5316;-78
2023/01/24 07:35:22;;;;;;;;;;;;;;;5.16;71.06;102231.16;5079746;28;5440;-78
2023/01/24 07:37:49;;;;;;;;;;;;;;;5.28;70.73;102242.50;5092012;28;5287;-78
2023/01/24 07:40:17;;;;;;;;;;;;;;;5.23;70.66;102238.47;5091396;28;5729;-78
2023/01/24 07:42:43;;;;;;;;;;;;;;;5.30;70.56;102240.56;5073309;28;5666;-78
2023/01/24 07:45:11;;;;;;;;;;;;;;;5.25;70.64;102240.97;5096389;27;5287;-78
2023/01/24 07:47:38;;;;;;;;;;;;;;;5.27;70.78;102252.38;5098871;27;5567;-78
2023/01/24 07:50:05;;;;;;;;;;;;;;;5.23;70.79;102233.13;5095202;27;5729;-77
2023/01/24 07:52:31;;;;;;;;;;;;;;;5.30;70.42;102245.91;5081350;27;5350;-77
2023/01/24 07:54:57;;;;;;;;;;;;;;;5.27;70.63;102244.34;5100250;27;5672;-78
2023/01/24 07:57:26;;;;;;;;;;;;;;;5.26;70.65;102253.31;5099893;27;5319;-78
2023/01/24 07:59:52;;;;;;;;;;;;;;;5.33;70.50;102250.94;5098622;27;5438;-77
2023/01/24 08:02:19;;;;;;;;;;;;;;;5.32;70.33;102244.72;5104556;27;5571;-77
2023/01/24 08:04:47;;;;;;;;;;;;;;;5.37;69.91;102253.16;5100295;27;5532;-77
2023/01/24 08:07:20;;;;;;;;;;;;;;;5.27;70.65;102249.69;5077964;27;5823;-77
2023/01/24 08:09:46;;;;;;;;;;;;;;;5.35;70.21;102257.81;5098596;27;5352;-77
2023/01/24 08:12:12;;;;;;;;;;;;;;;5.34;70.39;102268.66;5084212;27;5506;-77
2023/01/24 08:14:39;;;;;;;;;;;;;;;5.43;70.12;102263.28;5080869;28;5431;-77
2023/01/24 08:17:06;;;;;;;;;;;;;;;5.27;70.63;102256.88;5080325;28;5311;-77
2023/01/24 08:19:33;;;;;;;;;;;;;;;5.41;70.32;102251.91;5078303;28;5261;-78
2023/01/24 08:21:59;;;;;;;;;;;;;;;5.35;70.43;102251.63;5078556;28;5412;-76
2023/01/24 08:24:27;;;;;;;;;;;;;;;5.24;70.60;102258.00;5079770;28;5312;-78
2023/01/24 08:26:54;;;;;;;;;;;;;;;5.32;70.55;102243.91;5085645;28;5701;-78
2023/01/24 08:29:20;;;;;;;;;;;;;;;5.25;70.61;102246.31;5078814;28;5346;-77
2023/01/24 08:31:48;;;;;;;;;;;;;;;5.38;70.42;102256.69;5079581;28;5409;-77
2023/01/24 08:34:15;;;;;;;;;;;;;;;5.41;70.20;102267.06;5076200;28;5290;-77
2023/01/24 08:36:42;;;;;;;;;;;;;;;5.37;70.36;102257.69;5077147;28;5774;-77
2023/01/24 08:39:09;;;;;;;;;;;;;;;5.37;70.30;102250.50;5081896;28;5336;-78
2023/01/24 08:41:36;;;;;;;;;;;;;;;5.40;70.25;102247.53;5081791;28;5391;-77
2023/01/24 08:44:04;;;;;;;;;;;;;;;5.36;70.37;102242.66;5078808;28;5428;-78
2023/01/24 08:46:30;;;;;;;;;;;;;;;5.37;70.38;102250.50;5075550;28;5380;-78
2023/01/24 08:48:56;;;;;;;;;;;;;;;5.29;70.64;102260.22;5077967;28;5348;-78
2023/01/24 08:51:23;;;;;;;;;;;;;;;5.35;70.32;102244.44;5076511;28;5730;-78
2023/01/24 08:53:49;;;;;;;;;;;;;;;5.51;69.84;102257.22;5085284;28;5449;-78
2023/01/24 08:56:16;;;;;;;;;;;;;;;5.38;70.37;102243.31;5074049;28;5806;-78
2023/01/24 08:58:42;;;;;;;;;;;;;;;5.36;70.35;102247.97;5091683;28;5381;-78
2023/01/24 09:01:09;;;;;;;;;;;;;;;5.35;70.38;102244.44;5093362;28;5416;-78
2023/01/24 09:03:36;;;;;;;;;;;;;;;5.44;70.14;102251.63;5101554;28;2473;-78
2023/01/24 09:06:03;;;;;;;;;;;;;;;5.38;70.31;102243.31;5094403;28;2583;-78
2023/01/24 09:08:29;;;;;;;;;;;;;;;5.31;70.48;102247.56;5089518;28;2844;-78
2023/01/24 09:10:55;;;;;;;;;;;;;;;5.36;70.63;102250.66;5093502;28;4954;-78
2023/01/24 09:13:22;;;;;;;;;;;;;;;5.33;70.46;102246.44;5094630;27;5788;-78
2023/01/24 09:15:49;;;;;;;;;;;;;;;5.37;70.39;102266.53;5110135;27;2421;-79
2023/01/24 09:18:17;;;;;;;;;;;;;;;5.36;70.49;102258.66;5094265;27;5043;-78
2023/01/24 09:20:43;;;;;;;;;;;;;;;5.36;70.51;102272.88;5112830;27;2656;-78
2023/01/24 09:23:11;;;;;;;;;;;;;;;5.33;70.49;102262.47;5114790;27;2326;-78
2023/01/24 09:25:38;;;;;;;;;;;;;;;5.35;70.53;102267.66;5113667;27;2251;-78
2023/01/24 09:28:05;;;;;;;;;;;;;;;5.33;70.65;102258.97;5111598;27;2316;-78
2023/01/24 09:30:32;;;;;;;;;;;;;;;5.37;70.30;102261.19;5114684;27;2332;-78
2023/01/24 09:32:58;;;;;;;;;;;;;;;5.45;70.13;102255.13;5113749;27;2529;-78
2023/01/24 09:35:25;;;;;;;;;;;;;;;5.35;70.35;102252.47;5117377;27;2331;-78
2023/01/24 09:37:51;;;;;;;;;;;;;;;5.31;70.60;102243.06;5099703;27;2112;-78
2023/01/24 09:40:18;;;;;;;;;;;;;;;5.39;70.29;102250.38;5114518;27;2165;-78
2023/01/24 09:42:44;;;;;;;;;;;;;;;5.40;70.33;102266.25;5095030;27;2242;-78
2023/01/24 09:45:12;;;;;;;;;;;;;;;5.33;70.60;102262.47;5095409;27;2281;-78
2023/01/24 09:47:38;;;;;;;;;;;;;;;5.29;70.68;102249.53;5099028;27;2219;-78
2023/01/24 09:50:05;;;;;;;;;;;;;;;5.38;70.51;102243.31;5117297;27;3415;-78
2023/01/24 09:52:31;;;;;;;;;;;;;;;5.31;70.61;102244.91;5116322;27;2098;-79
2023/01/24 09:54:58;;;;;;;;;;;;;;;5.35;70.70;102236.44;5121589;27;2338;-79
2023/01/24 09:57:25;;;;;;;;;;;;;;;5.29;70.69;102226.31;5115493;27;2234;-78
2023/01/24 09:59:52;;;;;;;;;;;;;;;5.31;70.58;102228.88;5116549;27;2564;-79
2023/01/24 10:02:18;;;;;;;;;;;;;;;5.27;71.07;102219.47;5111665;27;2213;-78
2023/01/24 10:04:45;;;;;;;;;;;;;;;5.28;70.73;102237.16;5102736;27;2274;-79
2023/01/24 10:07:11;;;;;;;;;;;;;;;5.41;70.29;102230.53;5122727;27;2237;-78
2023/01/24 10:09:38;;;;;;;;;;;;;;;5.30;70.48;102213.84;5119352;27;2153;-79
2023/01/24 10:12:06;;;;;;;;;;;;;;;5.26;70.99;102234.63;5114886;27;2328;-78
2023/01/24 10:14:33;;;;;;;;;;;;;;;5.33;70.63;102237.59;5115571;27;2144;-78
2023/01/24 10:16:59;;;;;;;;;;;;;;;5.43;70.30;102225.88;5119041;27;2317;-78
2023/01/24 10:19:26;;;;;;;;;;;;;;;5.37;70.55;102210.41;5101375;27;2202;-78
2023/01/24 10:21:52;;;;;;;;;;;;;;;5.26;70.99;102223.94;5103360;27;2392;-78
2023/01/24 10:24:19;;;;;;;;;;;;;;;5.32;70.56;102206.50;5103691;27;2053;-78
2023/01/24 10:26:45;;;;;;;;;;;;;;;5.35;70.65;102200.84;5101388;27;2285;-78
2023/01/24 10:29:12;;;;;;;;;;;;;;;4.84;70.33;102105.97;5104366;27;2226;-78
2023/01/24 10:31:38;;;;;;;;;;;;;;;5.37;70.30;102191.72;5122229;27;1831;-78
2023/01/24 10:34:05;;;;;;;;;;;;;;;5.39;70.44;102194.25;5105796;27;1067;-78
2023/01/24 10:36:32;;;;;;;;;;;;;;;5.31;70.76;102194.97;5122366;27;2090;-78
2023/01/24 10:38:59;;;;;;;;;;;;;;;5.35;70.62;102190.16;5115372;27;2272;-79
2023/01/24 10:41:27;;;;;;;;;;;;;;;5.37;70.47;102190.88;5115143;27;2251;-78
2023/01/24 10:43:55;;;;;;;;;;;;;;;5.36;70.62;102186.53;5119371;27;2345;-78
2023/01/24 10:46:22;;;;;;;;;;;;;;;5.34;70.64;102185.81;5104575;27;2266;-78
2023/01/24 10:48:48;;;;;;;;;;;;;;;5.38;70.66;102177.38;5098178;27;2711;-78
2023/01/24 10:51:15;;;;;;;;;;;;;;;5.40;70.63;102172.72;5088927;27;5444;-78
2023/01/24 10:53:41;;;;;;;;;;;;;;;5.51;70.29;102176.22;5095954;27;4895;-78
2023/01/24 10:56:08;;;;;;;;;;;;;;;5.46;70.26;102177.47;5114908;27;5246;-78
2023/01/24 10:58:34;;;;;;;;;;;;;;;5.49;70.09;102173.66;5116180;27;2202;-78
2023/01/24 11:01:01;;;;;;;;;;;;;;;5.44;70.38;102166.09;5099414;27;2344;-78
2023/01/24 11:03:27;;;;;;;;;;;;;;;5.52;70.01;102177.88;5114739;27;3782;-78
2023/01/24 11:05:54;;;;;;;;;;;;;;;5.54;69.97;102163.38;5120249;27;1995;-78
2023/01/24 11:08:21;;;;;;;;;;;;;;;5.50;70.18;102169.16;5104128;28;1546;-79
2023/01/24 11:10:47;;;;;;;;;;;;;;;5.52;70.28;102170.69;5123022;27;1196;-78
2023/01/24 11:13:14;;;;;;;;;;;;;;;5.49;70.04;102164.81;5120485;27;1356;-78
2023/01/24 11:15:41;;;;;;;;;;;;;;;5.56;69.85;102163.22;5119165;27;1544;-78
2023/01/24 11:18:07;;;;;;;;;;;;;;;5.61;69.77;102159.13;5115936;27;2210;-78
2023/01/24 11:20:34;;;;;;;;;;;;;;;5.65;69.53;102157.03;5113736;27;2141;-78
2023/01/24 11:23:00;;;;;;;;;;;;;;;5.55;70.00;102146.34;5104489;28;1354;-78
2023/01/24 11:25:28;;;;;;;;;;;;;;;5.58;69.94;102143.38;5123839;28;1002;-78
2023/01/24 11:27:55;;;;;;;;;;;;;;;5.55;69.93;102130.31;5100540;28;1983;-78
2023/01/24 11:30:22;;;;;;;;;;;;;;;5.49;70.00;102122.88;5120717;28;1397;-78
2023/01/24 11:32:48;;;;;;;;;;;;;;;5.65;69.76;102127.63;5122177;28;1528;-79
2023/01/24 11:35:15;;;;;;;;;;;;;;;5.55;69.95;102127.63;5103036;28;1838;-78
2023/01/24 11:37:41;;;;;;;;;;;;;;;5.53;70.36;102112.75;5105082;28;1293;-78
2023/01/24 11:40:07;;;;;;;;;;;;;;;5.64;69.80;102113.38;5119063;28;2622;-78
2023/01/24 11:42:35;;;;;;;;;;;;;;;5.61;69.78;102115.50;5118886;28;1800;-78
2023/01/24 11:45:02;;;;;;;;;;;;;;;5.60;69.85;102108.50;5120952;28;2739;-78
2023/01/24 11:47:28;;;;;;;;;;;;;;;5.64;69.75;102115.22;5124056;28;2255;-78
2023/01/24 11:49:55;;;;;;;;;;;;;;;5.65;69.84;102104.38;5101320;28;3300;-78
2023/01/24 11:52:22;;;;;;;;;;;;;;;5.61;70.00;102102.16;5094662;28;5302;-78
2023/01/24 11:54:49;;;;;;;;;;;;;;;5.64;69.83;102109.88;5113363;28;5289;-78
2023/01/24 11:57:17;;;;;;;;;;;;;;;5.53;70.16;102102.06;5098931;28;5393;-78
2023/01/24 11:59:44;;;;;;;;;;;;;;;5.56;70.14;102105.28;5111118;28;5728;-78
2023/01/24 12:02:10;;;;;;;;;;;;;;;5.59;70.09;102105.00;5091977;28;5290;-78
2023/01/24 12:04:37;;;;;;;;;;;;;;;5.56;70.07;102096.41;5109714;28;5544;-78
2023/01/24 12:07:03;;;;;;;;;;;;;;;5.57;70.36;102095.44;5109995;28;5231;-78
2023/01/24 12:09:30;;;;;;;;;;;;;;;5.59;69.92;102109.47;5112631;28;5294;-78
2023/01/24 12:11:56;;;;;;;;;;;;;;;5.63;70.17;102119.72;5110819;27;5354;-78
2023/01/24 12:14:24;;;;;;;;;;;;;;;5.64;69.91;102125.91;5120788;27;1976;-78
2023/01/24 12:16:52;;;;;;;;;;;;;;;5.48;70.23;102118.53;5119123;28;5157;-78
2023/01/24 12:19:22;;;;;;;;;;;;;;;5.48;70.71;102121.22;5120674;28;1353;-78
2023/01/24 12:21:51;;;;;;;;;;;;;;;5.61;70.16;102116.34;5122091;28;1230;-78
2023/01/24 12:24:19;;;;;;;;;;;;;;;5.51;70.46;102104.06;5122666;28;937;-78
2023/01/24 12:26:45;;;;;;;;;;;;;;;5.68;69.78;102113.94;5119914;27;2153;-78
2023/01/24 12:29:12;;;;;;;;;;;;;;;5.68;70.02;102116.63;5121197;27;5179;-78
2023/01/24 12:31:38;;;;;;;;;;;;;;;5.54;70.20;102104.59;5121565;27;1354;-78
2023/01/24 12:34:05;;;;;;;;;;;;;;;5.60;70.11;102100.47;5126563;27;912;-78
2023/01/24 12:36:34;;;;;;;;;;;;;;;5.67;70.03;102090.84;5123782;27;1485;-78
2023/01/24 12:39:02;;;;;;;;;;;;;;;5.63;70.09;102084.13;5119686;27;1344;-77
2023/01/24 12:41:28;;;;;;;;;;;;;;;5.57;70.37;102098.94;5119835;27;1980;-77
2023/01/24 12:43:55;;;;;;;;;;;;;;;5.64;70.07;102092.00;5122195;27;1371;-78
2023/01/24 12:46:22;;;;;;;;;;;;;;;5.65;69.83;102098.22;5123667;27;1905;-78
2023/01/24 12:48:48;;;;;;;;;;;;;;;5.54;70.41;102077.84;5100801;27;5383;-77
2023/01/24 12:51:16;;;;;;;;;;;;;;;5.54;70.47;102071.69;5099771;27;5323;-78
2023/01/24 12:53:44;;;;;;;;;;;;;;;5.61;70.28;102062.06;5109481;27;5654;-77
2023/01/24 12:56:12;;;;;;;;;;;;;;;5.58;70.39;102065.03;5116116;27;5452;-78
2023/01/24 12:58:38;;;;;;;;;;;;;;;5.56;70.34;102073.22;5114198;27;5357;-77
2023/01/24 13:01:05;;;;;;;;;;;;;;;5.54;70.47;102077.03;5115091;27;5617;-77
2023/01/24 13:03:32;;;;;;;;;;;;;;;5.62;69.98;102083.31;5094212;27;5341;-78
2023/01/24 13:05:59;;;;;;;;;;;;;;;5.61;70.32;102076.25;5114691;27;5526;-78
2023/01/24 13:08:26;;;;;;;;;;;;;;;5.58;70.35;102068.53;5113661;27;5360;-77
2023/01/24 13:10:53;;;;;;;;;;;;;;;5.57;70.52;102060.69;5115371;27;5344;-77
2023/01/24 13:13:20;;;;;;;;;;;;;;;5.52;70.52;102068.31;5114278;27;5255;-77
2023/01/24 13:15:47;;;;;;;;;;;;;;;5.42;70.75;102061.19;5113096;27;5313;-78
2023/01/24 13:18:14;;;;;;;;;;;;;;;5.54;70.75;102061.81;5112132;27;5588;-77
2023/01/24 13:20:40;;;;;;;;;;;;;;;5.55;70.47;102062.66;5114305;27;5610;-77
2023/01/24 13:23:07;;;;;;;;;;;;;;;5.58;70.49;102054.34;5111278;27;5873;-77
2023/01/24 13:25:35;;;;;;;;;;;;;;;5.47;70.74;102058.91;5096846;27;5271;-77
2023/01/24 13:28:04;;;;;;;;;;;;;;;5.41;71.07;102056.84;5113625;27;5476;-77
2023/01/24 13:30:31;;;;;;;;;;;;;;;5.53;70.59;102049.47;5114671;27;5166;-78
2023/01/24 13:32:57;;;;;;;;;;;;;;;5.55;70.43;102035.94;5112100;27;5337;-77